Aviation Digital Data Service (ADDS)

Output produced by METARs form (0329 UTC 17 September 2014)
found at http://www.aviationweather.gov/adds/metars/
 
KSBY 170254Z AUTO 02004KT 10SM FEW090 17/13 A3000 RMK AO2 SLPNO T01720133 50005
KSBY 162332Z 1700/1724 01005KT P6SM SCT080 
     FM170800 04007KT P6SM BKN040 
     FM171500 08010KT P6SM SCT030 BKN050